Informes METAR cercanos


LEVC - Manises, Valencia, ESPAÑA
Distance from station: NNE 72km
Actualización: 18/09/2018 19:17
Thunderstorm, Lluvia débil, Showers, Algunas nubes
Thunderstorm, Lluvia débil, Showers, Algunas nubes
 Viento del E
Viento: E 11 km/h
Temperatura: 25°C
Rocío: 21°C
Humedad: 79%
Barómetro: 1017 hPa
Resumen: Thunderstorm, Lluvia débil, Showers
Clouds: Algunas nubes
Visibility: 10 km
Cloud details: Algunas nubes 549 m
Muy nuboso 671 m
Algunas nubes 762 m
2018/09/18 17:17 LEVC 181717Z 08006KT 050V110 9999 TS -SHRA FEW018 BKN022 FEW025CB 25/21 Q1017 NOSIG
LEAL - El Altet, Alicante, ESPAÑA
Distance from station: S 70km
Actualización: 18/09/2018 19:00
Algunas nubes
Algunas nubes
 Viento del E
Viento: E 13 km/h
Temperatura: 25°C
Rocío: 21°C
Humedad: 79%
Barómetro: 1016 hPa
Clouds: Algunas nubes
Visibility: 10 km
Cloud details: Algunas nubes 366 m
2018/09/18 17:00 LEAL 181700Z 09007KT 060V120 9999 FEW012 25/21 Q1016 TEMPO FEW025CB
 
LELC - San Javier, Murcia, ESPAÑA
Distance from station: SSO 188km
Actualización: 18/09/2018 19:00
Algunas nubes
Algunas nubes
 Viento del E
Viento: E 13 km/h
Temperatura: 26°C
Rocío: 22°C
Humedad: 79%
Barómetro: 1015 hPa
Clouds: Algunas nubes
Visibility: 10 km
Cloud details: Algunas nubes 518 m
2018/09/18 17:00 LELC 181700Z 09007KT 050V120 9999 FEW017 26/22 Q1015 NOSIG
LEAB - Los Llanos, Albacete, ESPAÑA
Distance from station: O 143km
Actualización: 18/09/2018 19:00
Algunas nubes
Algunas nubes
 Viento del SSO
Viento: SSO 6 km/h
Temperatura: 25°C
Rocío: 17°C
Humedad: 61%
Barómetro: 1018 hPa
Clouds: Algunas nubes
Visibility: 10 km
Cloud details: Algunas nubes 1524 m
2018/09/18 17:00 LEAB 181700Z 20003KT 170V230 9999 FEW050TCU 25/17 Q1018 NOSIG